createdAt,value
2023-02-07T00:01:16.609Z,2.40
2023-02-07T00:03:44.890Z,2.88
2023-02-07T00:06:17.259Z,2.45
2023-02-07T00:08:44.568Z,2.72
2023-02-07T00:11:16.612Z,3.27
2023-02-07T00:13:44.383Z,3.42
2023-02-07T00:16:12.147Z,3.47
2023-02-07T00:18:39.614Z,2.50
2023-02-07T00:21:15.675Z,2.80
2023-02-07T00:23:43.351Z,2.33
2023-02-07T00:26:11.616Z,3.00
2023-02-07T00:28:38.886Z,3.33
2023-02-07T00:31:12.308Z,2.78
2023-02-07T00:33:41.018Z,4.53
2023-02-07T00:36:11.439Z,3.17
2023-02-07T00:38:38.785Z,3.55
2023-02-07T00:41:06.238Z,3.55
2023-02-07T00:43:33.944Z,3.22
2023-02-07T00:46:03.297Z,4.20
2023-02-07T00:48:31.578Z,3.10
2023-02-07T00:50:59.024Z,2.90
2023-02-07T00:53:26.995Z,2.85
2023-02-07T00:55:54.639Z,2.88
2023-02-07T00:58:22.041Z,3.05
2023-02-07T01:00:49.578Z,2.47
2023-02-07T01:03:17.757Z,2.65
2023-02-07T01:05:45.108Z,3.05
2023-02-07T01:08:12.711Z,3.13
2023-02-07T01:10:41.426Z,3.35
2023-02-07T01:13:09.292Z,2.73
2023-02-07T01:15:41.634Z,3.72
2023-02-07T01:18:09.426Z,3.88
2023-02-07T01:20:37.037Z,3.00
2023-02-07T01:23:05.805Z,2.75
2023-02-07T01:25:33.502Z,2.67
2023-02-07T01:28:00.661Z,4.70
2023-02-07T01:30:27.803Z,4.18
2023-02-07T01:32:54.772Z,4.10
2023-02-07T01:35:21.739Z,4.63
2023-02-07T01:37:48.761Z,3.37
2023-02-07T01:40:16.504Z,3.08
2023-02-07T01:42:43.526Z,2.70
2023-02-07T01:45:19.900Z,3.00
2023-02-07T01:47:47.566Z,2.83
2023-02-07T01:50:14.997Z,2.47
2023-02-07T01:52:42.752Z,2.55
2023-02-07T01:55:14.375Z,3.28
2023-02-07T01:57:42.325Z,3.42
2023-02-07T02:00:10.882Z,3.22
2023-02-07T02:02:38.875Z,3.13
2023-02-07T02:05:07.295Z,3.30
2023-02-07T02:07:38.955Z,3.75
2023-02-07T02:10:24.077Z,3.63
2023-02-07T02:13:28.858Z,2.58
2023-02-07T02:16:11.855Z,2.80
2023-02-07T02:19:06.609Z,2.53
2023-02-07T02:21:53.018Z,3.55
2023-02-07T02:24:38.288Z,2.65
2023-02-07T02:27:27.412Z,2.90
2023-02-07T02:30:03.558Z,3.53
2023-02-07T02:32:52.374Z,3.67
2023-02-07T02:35:42.580Z,3.17
2023-02-07T02:38:19.085Z,2.25
2023-02-07T02:40:57.518Z,2.88
2023-02-07T02:43:57.565Z,2.30
2023-02-07T02:46:30.353Z,2.05
2023-02-07T02:48:58.756Z,4.20
2023-02-07T02:51:29.640Z,2.08
2023-02-07T02:53:59.285Z,2.70
2023-02-07T02:57:10.522Z,2.60
2023-02-07T03:00:02.079Z,2.50
2023-02-07T03:02:52.562Z,2.38
2023-02-07T03:05:40.952Z,1.67
2023-02-07T03:08:11.049Z,2.40
2023-02-07T03:10:55.928Z,1.53
2023-02-07T03:13:40.694Z,1.63
2023-02-07T03:16:28.455Z,2.05
2023-02-07T03:19:10.134Z,2.08
2023-02-07T03:21:50.921Z,2.17
2023-02-07T03:24:23.958Z,1.50
2023-02-07T03:26:56.757Z,2.05
2023-02-07T03:29:25.442Z,1.67
2023-02-07T03:31:58.568Z,1.95
2023-02-07T03:34:34.813Z,2.47
2023-02-07T03:37:11.846Z,2.53
2023-02-07T03:39:39.289Z,2.47
2023-02-07T03:42:16.792Z,2.47
2023-02-07T03:44:45.161Z,3.10
2023-02-07T03:47:12.221Z,2.75
2023-02-07T03:49:39.174Z,2.10
2023-02-07T03:52:06.211Z,2.08
2023-02-07T03:54:33.256Z,2.30
2023-02-07T03:57:00.232Z,2.67
2023-02-07T03:59:27.703Z,2.17
2023-02-07T04:01:54.794Z,2.90
2023-02-07T04:04:21.815Z,2.38
2023-02-07T04:06:48.860Z,2.90
2023-02-07T04:09:16.383Z,2.55
2023-02-07T04:11:43.544Z,2.22
2023-02-07T04:14:10.516Z,2.27
2023-02-07T04:16:37.588Z,3.50
2023-02-07T04:19:04.645Z,6.30
2023-02-07T04:21:32.105Z,3.70
2023-02-07T04:23:59.116Z,4.45
2023-02-07T04:26:26.250Z,4.37
2023-02-07T04:28:53.218Z,7.22
2023-02-07T04:31:20.216Z,15.98
2023-02-07T04:33:48.406Z,11.43
2023-02-07T04:36:15.810Z,10.88
2023-02-07T04:38:42.877Z,4.87
2023-02-07T04:41:09.845Z,6.32
2023-02-07T04:43:38.089Z,6.20
2023-02-07T04:46:06.091Z,5.80
2023-02-07T04:48:33.936Z,6.35
2023-02-07T04:51:00.915Z,5.10
2023-02-07T04:53:27.856Z,5.05
2023-02-07T04:55:55.131Z,5.05
2023-02-07T04:58:24.982Z,4.22
2023-02-07T05:00:53.920Z,4.68
2023-02-07T05:03:21.248Z,7.87
2023-02-07T05:05:48.417Z,16.95
2023-02-07T05:08:15.489Z,15.68
2023-02-07T05:10:42.590Z,18.02
2023-02-07T05:13:10.025Z,9.80
2023-02-07T05:15:37.505Z,13.20
2023-02-07T05:18:06.795Z,13.43
2023-02-07T05:20:33.980Z,11.95
2023-02-07T05:23:01.202Z,9.85
2023-02-07T05:25:28.182Z,10.40
2023-02-07T05:27:55.258Z,13.27
2023-02-07T05:30:22.537Z,11.05
2023-02-07T05:33:04.556Z,12.32
2023-02-07T05:35:36.839Z,9.65
2023-02-07T05:38:07.646Z,8.50
2023-02-07T05:40:39.569Z,9.73
2023-02-07T05:43:07.292Z,9.60
2023-02-07T05:45:34.954Z,12.18
2023-02-07T05:48:02.277Z,10.00
2023-02-07T05:50:30.138Z,9.00
2023-02-07T05:52:57.516Z,12.80
2023-02-07T05:55:24.717Z,8.43
2023-02-07T05:57:51.712Z,6.63
2023-02-07T06:00:19.663Z,5.20
2023-02-07T06:02:47.428Z,4.93
2023-02-07T06:05:18.037Z,4.27
2023-02-07T06:07:45.235Z,4.60
2023-02-07T06:10:12.628Z,4.40
2023-02-07T06:12:39.970Z,5.00
2023-02-07T06:15:07.517Z,6.95
2023-02-07T06:17:34.552Z,8.17
2023-02-07T06:20:01.771Z,10.02
2023-02-07T06:22:28.928Z,17.50
2023-02-07T06:24:55.943Z,21.45
2023-02-07T06:27:22.909Z,19.00
2023-02-07T06:29:49.900Z,13.70
2023-02-07T06:32:16.946Z,12.45
2023-02-07T06:34:44.271Z,13.52
2023-02-07T06:37:11.317Z,19.27
2023-02-07T06:39:39.275Z,16.48
2023-02-07T06:42:06.441Z,17.80
2023-02-07T06:44:33.625Z,18.42
2023-02-07T06:47:00.824Z,26.48
2023-02-07T06:49:27.861Z,25.92
2023-02-07T06:51:54.799Z,26.25
2023-02-07T06:54:22.081Z,27.80
2023-02-07T06:56:49.046Z,26.95
2023-02-07T06:59:16.268Z,20.90
2023-02-07T07:01:43.312Z,22.70
2023-02-07T07:04:10.351Z,25.63
2023-02-07T07:06:37.523Z,28.63
2023-02-07T07:09:11.801Z,28.05
2023-02-07T07:11:43.263Z,30.05
2023-02-07T07:14:11.769Z,28.30
2023-02-07T07:16:40.952Z,26.48
2023-02-07T07:19:07.963Z,27.80
2023-02-07T07:21:35.312Z,25.92
2023-02-07T07:24:02.253Z,27.67
2023-02-07T07:26:36.670Z,24.98
2023-02-07T07:29:13.976Z,29.13
2023-02-07T07:31:40.947Z,37.83
2023-02-07T07:34:08.005Z,49.05
2023-02-07T07:36:34.983Z,52.17
2023-02-07T07:39:02.158Z,52.85
2023-02-07T07:41:29.139Z,52.72
2023-02-07T07:43:56.151Z,47.73
2023-02-07T07:46:23.168Z,46.78
2023-02-07T07:48:50.235Z,50.03
2023-02-07T07:51:17.158Z,48.42
2023-02-07T07:53:44.244Z,47.65
2023-02-07T07:56:11.229Z,42.67
2023-02-07T07:58:38.382Z,43.63
2023-02-07T08:01:05.976Z,42.22
2023-02-07T08:03:33.186Z,35.13
2023-02-07T08:06:00.326Z,35.35
2023-02-07T08:08:27.373Z,30.33
2023-02-07T08:10:54.358Z,34.78
2023-02-07T08:13:22.007Z,38.08
2023-02-07T08:15:49.489Z,44.78
2023-02-07T08:18:16.636Z,43.17
2023-02-07T08:20:43.636Z,43.27
2023-02-07T08:23:11.784Z,42.97
2023-02-07T08:25:38.993Z,44.30
2023-02-07T08:28:06.054Z,42.00
2023-02-07T08:30:33.072Z,43.75
2023-02-07T08:33:00.165Z,45.50
2023-02-07T08:35:28.562Z,34.42
2023-02-07T08:37:58.505Z,14.90
2023-02-07T08:40:26.857Z,5.47
2023-02-07T08:42:53.905Z,8.15
2023-02-07T08:45:20.942Z,5.97
2023-02-07T08:47:48.003Z,8.95
2023-02-07T08:50:16.600Z,4.38
2023-02-07T08:52:43.676Z,10.85
2023-02-07T08:55:11.335Z,7.07
2023-02-07T08:57:38.671Z,4.90
2023-02-07T09:00:07.778Z,8.18
2023-02-07T09:02:35.150Z,6.38
2023-02-07T09:05:02.414Z,5.75
2023-02-07T09:07:29.495Z,4.72
2023-02-07T09:09:56.831Z,4.93
2023-02-07T09:12:23.805Z,4.72
2023-02-07T09:14:50.770Z,9.45
2023-02-07T09:17:17.963Z,14.30
2023-02-07T09:19:45.181Z,28.65
2023-02-07T09:22:12.321Z,15.50
2023-02-07T09:24:39.335Z,26.10
2023-02-07T09:27:06.421Z,16.30
2023-02-07T09:29:33.741Z,2.83
2023-02-07T09:32:01.112Z,5.18
2023-02-07T09:34:28.450Z,5.23
2023-02-07T09:36:55.481Z,4.38
2023-02-07T09:39:22.458Z,4.50
2023-02-07T09:42:24.999Z,7.07
2023-02-07T09:44:59.975Z,2.97
2023-02-07T09:47:27.468Z,3.77
2023-02-07T09:49:57.415Z,2.38
2023-02-07T09:52:28.276Z,2.72
2023-02-07T09:54:58.577Z,1.95
2023-02-07T09:57:42.232Z,2.80
2023-02-07T10:00:42.601Z,5.43
2023-02-07T10:03:30.093Z,5.10
2023-02-07T10:06:12.711Z,4.65
2023-02-07T10:08:47.279Z,3.83
2023-02-07T10:11:34.611Z,4.32
2023-02-07T10:14:07.417Z,2.03
2023-02-07T10:16:47.448Z,2.92
2023-02-07T10:19:32.875Z,4.80
2023-02-07T10:22:14.877Z,2.42
2023-02-07T10:24:56.742Z,2.35
2023-02-07T10:27:29.784Z,1.60
2023-02-07T10:30:17.194Z,2.13
2023-02-07T10:32:47.684Z,2.97
2023-02-07T10:35:32.620Z,24.88
2023-02-07T10:38:02.616Z,24.30
2023-02-07T11:19:08.587Z,7.05
